sensor_id;sensor_type;location;lat;lon;timestamp;noise_LAeq;noise_LA_min;noise_LA_max;noise_LA01;noise_LA95
72415;Laerm;60995;52.154;4.498;2023-02-01T00:00:47;43.63;37.97;59.32;;
72415;Laerm;60995;52.154;4.498;2023-02-01T00:03:03;42.46;37.22;53.82;;
72415;Laerm;60995;52.154;4.498;2023-02-01T00:05:21;44.19;37.90;68.83;;
72415;Laerm;60995;52.154;4.498;2023-02-01T00:07:37;43.89;37.16;68.96;;
72415;Laerm;60995;52.154;4.498;2023-02-01T00:09:53;43.88;37.88;62.40;;
72415;Laerm;60995;52.154;4.498;2023-02-01T00:12:09;41.60;37.29;52.46;;
72415;Laerm;60995;52.154;4.498;2023-02-01T00:14:25;43.80;37.58;52.30;;
72415;Laerm;60995;52.154;4.498;2023-02-01T00:16:41;45.29;38.98;54.89;;
72415;Laerm;60995;52.154;4.498;2023-02-01T00:19:03;43.55;37.59;55.16;;
72415;Laerm;60995;52.154;4.498;2023-02-01T00:21:21;43.71;37.68;57.01;;
72415;Laerm;60995;52.154;4.498;2023-02-01T00:23:37;42.25;36.90;52.19;;
72415;Laerm;60995;52.154;4.498;2023-02-01T00:25:54;43.15;37.37;55.57;;
72415;Laerm;60995;52.154;4.498;2023-02-01T00:28:10;43.32;37.25;52.44;;
72415;Laerm;60995;52.154;4.498;2023-02-01T00:30:28;42.30;37.00;48.20;;
72415;Laerm;60995;52.154;4.498;2023-02-01T00:32:44;43.52;37.95;57.85;;
72415;Laerm;60995;52.154;4.498;2023-02-01T00:35:00;43.02;37.55;50.76;;
72415;Laerm;60995;52.154;4.498;2023-02-01T00:37:16;43.40;37.27;53.90;;
72415;Laerm;60995;52.154;4.498;2023-02-01T00:39:32;42.77;37.02;55.91;;
72415;Laerm;60995;52.154;4.498;2023-02-01T00:41:48;42.84;37.37;50.70;;
72415;Laerm;60995;52.154;4.498;2023-02-01T00:44:04;50.35;37.57;79.45;;
72415;Laerm;60995;52.154;4.498;2023-02-01T00:46:20;45.48;38.45;56.06;;
72415;Laerm;60995;52.154;4.498;2023-02-01T00:48:38;42.43;38.14;52.90;;
72415;Laerm;60995;52.154;4.498;2023-02-01T00:50:54;42.90;37.38;55.75;;
72415;Laerm;60995;52.154;4.498;2023-02-01T00:53:10;40.64;37.09;52.40;;
72415;Laerm;60995;52.154;4.498;2023-02-01T00:55:27;42.71;36.96;57.72;;
72415;Laerm;60995;52.154;4.498;2023-02-01T00:57:43;41.36;36.82;56.02;;
72415;Laerm;60995;52.154;4.498;2023-02-01T00:59:59;43.46;37.82;68.94;;
72415;Laerm;60995;52.154;4.498;2023-02-01T01:02:15;42.69;38.18;53.33;;
72415;Laerm;60995;52.154;4.498;2023-02-01T01:04:31;43.22;37.64;67.08;;
72415;Laerm;60995;52.154;4.498;2023-02-01T01:06:47;41.90;37.50;51.10;;
72415;Laerm;60995;52.154;4.498;2023-02-01T01:09:06;43.00;36.91;52.92;;
72415;Laerm;60995;52.154;4.498;2023-02-01T01:11:26;41.39;37.03;49.03;;
72415;Laerm;60995;52.154;4.498;2023-02-01T01:13:43;41.93;37.08;50.29;;
72415;Laerm;60995;52.154;4.498;2023-02-01T01:16:07;42.05;37.72;51.39;;
72415;Laerm;60995;52.154;4.498;2023-02-01T01:18:23;42.52;37.42;58.44;;
72415;Laerm;60995;52.154;4.498;2023-02-01T01:20:40;41.79;37.01;51.97;;
72415;Laerm;60995;52.154;4.498;2023-02-01T01:22:56;40.78;37.16;49.96;;
72415;Laerm;60995;52.154;4.498;2023-02-01T01:25:13;42.05;36.95;49.85;;
72415;Laerm;60995;52.154;4.498;2023-02-01T01:27:29;40.92;36.82;47.56;;
72415;Laerm;60995;52.154;4.498;2023-02-01T01:29:45;43.26;37.46;52.34;;
72415;Laerm;60995;52.154;4.498;2023-02-01T01:32:01;42.19;37.18;54.10;;
72415;Laerm;60995;52.154;4.498;2023-02-01T01:34:17;42.47;37.07;54.08;;
72415;Laerm;60995;52.154;4.498;2023-02-01T01:36:33;41.31;36.13;50.33;;
72415;Laerm;60995;52.154;4.498;2023-02-01T01:38:49;41.02;37.08;46.48;;
72415;Laerm;60995;52.154;4.498;2023-02-01T01:41:06;45.01;38.08;55.06;;
72415;Laerm;60995;52.154;4.498;2023-02-01T01:43:23;43.35;37.64;55.93;;
72415;Laerm;60995;52.154;4.498;2023-02-01T01:45:39;45.27;38.33;54.79;;
72415;Laerm;60995;52.154;4.498;2023-02-01T01:48:02;42.42;37.95;50.72;;
72415;Laerm;60995;52.154;4.498;2023-02-01T01:50:25;43.88;38.62;54.89;;
72415;Laerm;60995;52.154;4.498;2023-02-01T01:52:46;42.50;37.83;52.48;;
72415;Laerm;60995;52.154;4.498;2023-02-01T01:55:05;43.19;37.94;49.37;;
72415;Laerm;60995;52.154;4.498;2023-02-01T01:57:31;41.76;37.19;52.74;;
72415;Laerm;60995;52.154;4.498;2023-02-01T02:00:21;44.25;38.27;57.45;;
72415;Laerm;60995;52.154;4.498;2023-02-01T02:02:38;43.79;37.96;55.81;;
72415;Laerm;60995;52.154;4.498;2023-02-01T02:04:56;42.90;36.85;51.99;;
72415;Laerm;60995;52.154;4.498;2023-02-01T02:07:18;44.05;38.13;54.37;;
72415;Laerm;60995;52.154;4.498;2023-02-01T02:09:41;45.32;38.39;60.76;;
72415;Laerm;60995;52.154;4.498;2023-02-01T02:11:58;43.06;38.31;55.76;;
72415;Laerm;60995;52.154;4.498;2023-02-01T02:14:17;43.55;37.75;60.55;;
72415;Laerm;60995;52.154;4.498;2023-02-01T02:16:58;43.76;38.43;52.26;;
72415;Laerm;60995;52.154;4.498;2023-02-01T02:22:03;45.37;37.68;72.59;;
72415;Laerm;60995;52.154;4.498;2023-02-01T02:24:43;42.07;37.85;55.49;;
72415;Laerm;60995;52.154;4.498;2023-02-01T02:27:12;41.66;36.68;47.90;;
72415;Laerm;60995;52.154;4.498;2023-02-01T02:30:02;43.30;37.22;52.94;;
72415;Laerm;60995;52.154;4.498;2023-02-01T02:32:38;43.05;37.75;53.08;;
72415;Laerm;60995;52.154;4.498;2023-02-01T02:35:26;43.70;37.11;55.44;;
72415;Laerm;60995;52.154;4.498;2023-02-01T02:40:43;41.64;36.97;50.51;;
72415;Laerm;60995;52.154;4.498;2023-02-01T02:43:52;43.01;37.23;54.93;;
72415;Laerm;60995;52.154;4.498;2023-02-01T02:46:31;42.91;37.66;52.97;;
72415;Laerm;60995;52.154;4.498;2023-02-01T02:49:23;42.55;37.90;56.75;;
72415;Laerm;60995;52.154;4.498;2023-02-01T02:51:54;43.59;37.33;60.58;;
72415;Laerm;60995;52.154;4.498;2023-02-01T02:54:37;43.74;37.77;54.39;;
72415;Laerm;60995;52.154;4.498;2023-02-01T02:57:06;43.92;37.96;64.71;;
72415;Laerm;60995;52.154;4.498;2023-02-01T02:59:44;43.18;37.40;58.95;;
72415;Laerm;60995;52.154;4.498;2023-02-01T03:02:20;45.93;38.60;63.51;;
72415;Laerm;60995;52.154;4.498;2023-02-01T03:05:00;43.72;37.87;54.14;;
72415;Laerm;60995;52.154;4.498;2023-02-01T03:10:26;43.65;37.55;53.71;;
72415;Laerm;60995;52.154;4.498;2023-02-01T03:12:44;44.42;38.24;63.06;;
72415;Laerm;60995;52.154;4.498;2023-02-01T03:15:12;45.25;38.27;64.17;;
72415;Laerm;60995;52.154;4.498;2023-02-01T03:17:34;43.33;37.61;52.52;;
72415;Laerm;60995;52.154;4.498;2023-02-01T03:19:52;45.16;38.73;55.47;;
72415;Laerm;60995;52.154;4.498;2023-02-01T03:22:14;43.83;38.59;51.79;;
72415;Laerm;60995;52.154;4.498;2023-02-01T03:24:56;43.42;38.24;53.32;;
72415;Laerm;60995;52.154;4.498;2023-02-01T03:27:34;43.64;39.20;50.22;;
72415;Laerm;60995;52.154;4.498;2023-02-01T03:30:17;44.59;39.01;54.87;;
72415;Laerm;60995;52.154;4.498;2023-02-01T03:32:37;45.33;38.38;62.39;;
72415;Laerm;60995;52.154;4.498;2023-02-01T03:35:12;42.99;38.33;51.64;;
72415;Laerm;60995;52.154;4.498;2023-02-01T03:37:28;44.96;38.35;67.24;;
72415;Laerm;60995;52.154;4.498;2023-02-01T03:42:27;44.25;37.87;55.39;;
72415;Laerm;60995;52.154;4.498;2023-02-01T03:44:57;43.26;38.12;56.88;;
72415;Laerm;60995;52.154;4.498;2023-02-01T03:47:24;42.90;38.13;58.01;;
72415;Laerm;60995;52.154;4.498;2023-02-01T03:49:58;42.44;37.27;52.64;;
72415;Laerm;60995;52.154;4.498;2023-02-01T03:52:23;41.98;37.74;54.57;;
72415;Laerm;60995;52.154;4.498;2023-02-01T03:54:42;43.84;37.47;53.27;;
72415;Laerm;60995;52.154;4.498;2023-02-01T03:57:03;43.00;38.08;57.09;;
72415;Laerm;60995;52.154;4.498;2023-02-01T03:59:21;43.81;38.49;54.67;;
72415;Laerm;60995;52.154;4.498;2023-02-01T04:01:37;44.40;38.97;52.82;;
72415;Laerm;60995;52.154;4.498;2023-02-01T04:03:53;44.71;38.28;53.96;;
72415;Laerm;60995;52.154;4.498;2023-02-01T04:06:10;44.34;38.79;59.70;;
72415;Laerm;60995;52.154;4.498;2023-02-01T04:08:26;45.10;38.10;52.65;;
72415;Laerm;60995;52.154;4.498;2023-02-01T04:10:42;46.63;38.74;75.74;;
72415;Laerm;60995;52.154;4.498;2023-02-01T04:12:59;43.58;39.31;55.30;;
72415;Laerm;60995;52.154;4.498;2023-02-01T04:15:15;43.79;38.59;55.60;;
72415;Laerm;60995;52.154;4.498;2023-02-01T04:17:32;43.73;39.35;53.33;;
72415;Laerm;60995;52.154;4.498;2023-02-01T04:19:48;44.38;39.08;54.33;;
72415;Laerm;60995;52.154;4.498;2023-02-01T04:22:04;45.83;39.49;56.89;;
72415;Laerm;60995;52.154;4.498;2023-02-01T04:24:23;45.21;39.08;58.10;;
72415;Laerm;60995;52.154;4.498;2023-02-01T04:26:39;43.28;38.18;52.30;;
72415;Laerm;60995;52.154;4.498;2023-02-01T04:28:55;45.24;39.45;53.23;;
72415;Laerm;60995;52.154;4.498;2023-02-01T04:31:11;44.87;39.12;56.26;;
72415;Laerm;60995;52.154;4.498;2023-02-01T04:33:27;45.08;39.50;56.73;;
72415;Laerm;60995;52.154;4.498;2023-02-01T04:35:44;44.72;39.16;55.78;;
72415;Laerm;60995;52.154;4.498;2023-02-01T04:38:01;45.14;39.42;52.91;;
72415;Laerm;60995;52.154;4.498;2023-02-01T04:40:17;45.09;40.05;53.56;;
72415;Laerm;60995;52.154;4.498;2023-02-01T04:42:33;49.18;41.57;67.30;;
72415;Laerm;60995;52.154;4.498;2023-02-01T04:44:49;47.24;40.92;54.53;;
72415;Laerm;60995;52.154;4.498;2023-02-01T04:47:05;46.04;40.07;67.91;;
72415;Laerm;60995;52.154;4.498;2023-02-01T04:49:21;46.34;41.07;55.80;;
72415;Laerm;60995;52.154;4.498;2023-02-01T04:51:37;45.85;40.56;54.09;;
72415;Laerm;60995;52.154;4.498;2023-02-01T04:53:54;47.12;40.33;56.97;;
72415;Laerm;60995;52.154;4.498;2023-02-01T04:56:11;46.87;39.90;62.58;;
72415;Laerm;60995;52.154;4.498;2023-02-01T04:58:27;48.01;40.82;57.46;;
72415;Laerm;60995;52.154;4.498;2023-02-01T05:00:43;47.16;39.66;55.45;;
72415;Laerm;60995;52.154;4.498;2023-02-01T05:02:59;44.61;39.89;53.54;;
72415;Laerm;60995;52.154;4.498;2023-02-01T05:05:15;47.10;40.80;55.14;;
72415;Laerm;60995;52.154;4.498;2023-02-01T05:07:32;44.57;40.60;52.77;;
72415;Laerm;60995;52.154;4.498;2023-02-01T05:09:48;44.69;40.04;52.37;;
72415;Laerm;60995;52.154;4.498;2023-02-01T05:12:08;47.46;40.88;61.31;;
72415;Laerm;60995;52.154;4.498;2023-02-01T05:14:45;45.86;40.39;61.91;;
72415;Laerm;60995;52.154;4.498;2023-02-01T05:17:01;50.86;40.80;68.26;;
72415;Laerm;60995;52.154;4.498;2023-02-01T05:19:20;48.09;40.71;56.80;;
72415;Laerm;60995;52.154;4.498;2023-02-01T05:21:36;47.47;40.17;56.14;;
72415;Laerm;60995;52.154;4.498;2023-02-01T05:23:53;47.99;41.07;58.11;;
72415;Laerm;60995;52.154;4.498;2023-02-01T05:26:31;47.95;40.90;62.74;;
72415;Laerm;60995;52.154;4.498;2023-02-01T05:28:47;46.84;40.94;62.90;;
72415;Laerm;60995;52.154;4.498;2023-02-01T05:31:12;46.78;39.84;59.18;;
72415;Laerm;60995;52.154;4.498;2023-02-01T05:33:28;48.62;41.07;61.69;;
72415;Laerm;60995;52.154;4.498;2023-02-01T05:35:44;47.49;41.70;62.58;;
72415;Laerm;60995;52.154;4.498;2023-02-01T05:38:02;50.56;43.22;73.95;;
72415;Laerm;60995;52.154;4.498;2023-02-01T05:40:28;49.64;42.12;59.14;;
72415;Laerm;60995;52.154;4.498;2023-02-01T05:42:44;47.74;40.33;65.86;;
72415;Laerm;60995;52.154;4.498;2023-02-01T05:45:00;48.06;38.49;61.72;;
72415;Laerm;60995;52.154;4.498;2023-02-01T05:47:16;48.49;40.50;56.46;;
72415;Laerm;60995;52.154;4.498;2023-02-01T05:49:35;49.47;41.40;61.61;;
72415;Laerm;60995;52.154;4.498;2023-02-01T05:51:55;48.86;40.14;61.34;;
72415;Laerm;60995;52.154;4.498;2023-02-01T05:54:12;47.98;41.19;56.10;;
72415;Laerm;60995;52.154;4.498;2023-02-01T05:56:28;48.17;40.76;57.00;;
72415;Laerm;60995;52.154;4.498;2023-02-01T05:58:44;45.86;40.49;59.96;;
72415;Laerm;60995;52.154;4.498;2023-02-01T06:01:04;49.31;42.64;56.18;;
72415;Laerm;60995;52.154;4.498;2023-02-01T06:03:23;49.21;42.65;55.27;;
72415;Laerm;60995;52.154;4.498;2023-02-01T06:05:39;48.99;42.12;56.21;;
72415;Laerm;60995;52.154;4.498;2023-02-01T06:08:04;49.73;42.77;60.98;;
72415;Laerm;60995;52.154;4.498;2023-02-01T06:10:23;52.19;45.30;62.89;;
72415;Laerm;60995;52.154;4.498;2023-02-01T06:12:40;51.48;43.22;65.06;;
72415;Laerm;60995;52.154;4.498;2023-02-01T06:14:56;48.76;42.60;64.53;;
72415;Laerm;60995;52.154;4.498;2023-02-01T06:17:15;50.31;42.45;63.54;;
72415;Laerm;60995;52.154;4.498;2023-02-01T06:19:31;50.68;43.83;62.22;;
72415;Laerm;60995;52.154;4.498;2023-02-01T06:21:47;49.95;43.53;66.03;;
72415;Laerm;60995;52.154;4.498;2023-02-01T06:24:08;50.44;42.63;59.21;;
72415;Laerm;60995;52.154;4.498;2023-02-01T06:26:24;49.76;42.67;61.25;;
72415;Laerm;60995;52.154;4.498;2023-02-01T06:28:44;49.55;42.79;62.99;;
72415;Laerm;60995;52.154;4.498;2023-02-01T06:31:11;51.31;40.64;65.94;;
72415;Laerm;60995;52.154;4.498;2023-02-01T06:33:27;52.93;43.09;69.80;;
72415;Laerm;60995;52.154;4.498;2023-02-01T06:35:47;52.27;42.97;67.40;;
72415;Laerm;60995;52.154;4.498;2023-02-01T06:38:03;49.57;43.00;58.89;;
72415;Laerm;60995;52.154;4.498;2023-02-01T06:40:23;54.67;44.10;72.71;;
72415;Laerm;60995;52.154;4.498;2023-02-01T06:42:43;52.21;42.47;74.20;;
72415;Laerm;60995;52.154;4.498;2023-02-01T06:44:59;53.20;43.49;67.38;;
72415;Laerm;60995;52.154;4.498;2023-02-01T06:47:15;51.73;43.46;64.60;;
72415;Laerm;60995;52.154;4.498;2023-02-01T06:49:32;50.89;43.48;65.25;;
72415;Laerm;60995;52.154;4.498;2023-02-01T06:51:48;48.03;40.63;60.58;;
72415;Laerm;60995;52.154;4.498;2023-02-01T06:54:08;51.09;42.78;65.83;;
72415;Laerm;60995;52.154;4.498;2023-02-01T06:56:24;50.37;41.88;60.50;;
72415;Laerm;60995;52.154;4.498;2023-02-01T06:58:41;49.12;42.24;59.91;;
72415;Laerm;60995;52.154;4.498;2023-02-01T07:01:06;50.51;44.31;58.84;;
72415;Laerm;60995;52.154;4.498;2023-02-01T07:03:25;50.65;43.76;59.53;;
72415;Laerm;60995;52.154;4.498;2023-02-01T07:05:42;50.72;43.91;60.05;;
72415;Laerm;60995;52.154;4.498;2023-02-01T07:07:58;50.39;43.46;59.19;;
72415;Laerm;60995;52.154;4.498;2023-02-01T07:10:14;50.37;43.90;68.97;;
72415;Laerm;60995;52.154;4.498;2023-02-01T07:12:30;51.55;44.39;59.42;;
72415;Laerm;60995;52.154;4.498;2023-02-01T07:14:49;49.81;43.04;59.66;;
72415;Laerm;60995;52.154;4.498;2023-02-01T07:17:12;53.07;45.26;65.70;;
72415;Laerm;60995;52.154;4.498;2023-02-01T07:19:28;50.57;42.90;58.85;;
72415;Laerm;60995;52.154;4.498;2023-02-01T07:21:44;50.79;42.27;62.37;;
72415;Laerm;60995;52.154;4.498;2023-02-01T07:24:01;50.21;44.43;59.68;;
72415;Laerm;60995;52.154;4.498;2023-02-01T07:26:17;53.51;43.97;67.02;;
72415;Laerm;60995;52.154;4.498;2023-02-01T07:28:35;51.56;43.30;69.72;;
72415;Laerm;60995;52.154;4.498;2023-02-01T07:30:52;52.24;45.17;70.17;;
72415;Laerm;60995;52.154;4.498;2023-02-01T07:33:08;50.33;43.99;60.44;;
72415;Laerm;60995;52.154;4.498;2023-02-01T07:35:24;50.89;44.35;62.29;;
72415;Laerm;60995;52.154;4.498;2023-02-01T07:37:50;50.88;42.74;62.93;;
72415;Laerm;60995;52.154;4.498;2023-02-01T07:40:06;54.31;44.26;65.07;;
72415;Laerm;60995;52.154;4.498;2023-02-01T07:42:23;54.66;45.18;68.19;;
72415;Laerm;60995;52.154;4.498;2023-02-01T07:44:39;52.22;43.56;64.48;;
72415;Laerm;60995;52.154;4.498;2023-02-01T07:46:58;52.22;43.69;70.12;;
72415;Laerm;60995;52.154;4.498;2023-02-01T07:49:14;58.21;43.14;85.12;;
72415;Laerm;60995;52.154;4.498;2023-02-01T07:51:30;54.55;46.06;69.57;;
72415;Laerm;60995;52.154;4.498;2023-02-01T07:53:46;51.87;45.11;68.14;;
72415;Laerm;60995;52.154;4.498;2023-02-01T07:56:03;50.91;44.00;63.74;;
72415;Laerm;60995;52.154;4.498;2023-02-01T07:58:19;51.75;45.16;63.43;;
72415;Laerm;60995;52.154;4.498;2023-02-01T08:00:41;51.21;44.50;65.72;;
72415;Laerm;60995;52.154;4.498;2023-02-01T08:03:15;50.64;42.69;62.20;;
72415;Laerm;60995;52.154;4.498;2023-02-01T08:05:32;49.53;44.51;65.68;;
72415;Laerm;60995;52.154;4.498;2023-02-01T08:07:49;50.80;43.89;60.31;;
72415;Laerm;60995;52.154;4.498;2023-02-01T08:10:09;51.95;44.46;64.21;;
72415;Laerm;60995;52.154;4.498;2023-02-01T08:12:26;51.53;46.58;61.21;;
72415;Laerm;60995;52.154;4.498;2023-02-01T08:14:43;52.36;47.41;61.84;;
72415;Laerm;60995;52.154;4.498;2023-02-01T08:16:59;53.02;46.42;61.69;;
72415;Laerm;60995;52.154;4.498;2023-02-01T08:19:15;51.62;46.65;61.74;;
72415;Laerm;60995;52.154;4.498;2023-02-01T08:21:31;52.24;45.56;61.83;;
72415;Laerm;60995;52.154;4.498;2023-02-01T08:23:52;52.10;45.08;61.41;;
72415;Laerm;60995;52.154;4.498;2023-02-01T08:26:13;51.58;44.60;64.53;;
72415;Laerm;60995;52.154;4.498;2023-02-01T08:28:30;52.20;45.95;64.36;;
72415;Laerm;60995;52.154;4.498;2023-02-01T08:30:46;51.91;45.41;74.22;;
72415;Laerm;60995;52.154;4.498;2023-02-01T08:33:02;51.74;44.50;64.32;;
72415;Laerm;60995;52.154;4.498;2023-02-01T08:35:18;51.45;45.40;61.40;;
72415;Laerm;60995;52.154;4.498;2023-02-01T08:37:34;51.67;44.99;61.92;;
72415;Laerm;60995;52.154;4.498;2023-02-01T08:39:50;51.16;45.19;60.59;;
72415;Laerm;60995;52.154;4.498;2023-02-01T08:42:06;51.35;44.65;63.34;;
72415;Laerm;60995;52.154;4.498;2023-02-01T08:44:44;50.99;45.06;62.00;;
72415;Laerm;60995;52.154;4.498;2023-02-01T08:47:03;52.17;45.56;63.89;;
72415;Laerm;60995;52.154;4.498;2023-02-01T08:49:19;52.18;46.76;61.12;;
72415;Laerm;60995;52.154;4.498;2023-02-01T08:51:35;51.28;45.53;61.76;;
72415;Laerm;60995;52.154;4.498;2023-02-01T08:53:51;49.90;43.62;63.30;;
72415;Laerm;60995;52.154;4.498;2023-02-01T08:56:12;51.78;43.39;80.70;;
72415;Laerm;60995;52.154;4.498;2023-02-01T08:58:29;51.34;44.19;68.88;;
72415;Laerm;60995;52.154;4.498;2023-02-01T09:00:45;51.31;43.57;70.26;;
72415;Laerm;60995;52.154;4.498;2023-02-01T09:03:01;54.74;44.75;69.49;;
72415;Laerm;60995;52.154;4.498;2023-02-01T09:05:18;52.76;44.35;62.86;;
72415;Laerm;60995;52.154;4.498;2023-02-01T09:07:37;50.13;43.53;57.98;;
72415;Laerm;60995;52.154;4.498;2023-02-01T09:09:54;49.11;42.64;64.48;;
72415;Laerm;60995;52.154;4.498;2023-02-01T09:12:12;51.29;44.00;60.71;;
72415;Laerm;60995;52.154;4.498;2023-02-01T09:14:28;49.71;44.17;61.56;;
72415;Laerm;60995;52.154;4.498;2023-02-01T09:16:44;51.39;43.90;72.12;;
72415;Laerm;60995;52.154;4.498;2023-02-01T09:19:02;58.70;47.65;85.08;;
72415;Laerm;60995;52.154;4.498;2023-02-01T09:21:18;49.96;44.00;65.37;;
72415;Laerm;60995;52.154;4.498;2023-02-01T09:23:34;54.96;45.17;67.99;;
72415;Laerm;60995;52.154;4.498;2023-02-01T09:25:51;51.78;43.96;66.28;;
72415;Laerm;60995;52.154;4.498;2023-02-01T09:28:07;53.15;48.46;72.52;;
72415;Laerm;60995;52.154;4.498;2023-02-01T09:30:24;51.44;45.05;61.55;;
72415;Laerm;60995;52.154;4.498;2023-02-01T09:32:43;51.80;44.68;72.75;;
72415;Laerm;60995;52.154;4.498;2023-02-01T09:34:59;52.29;45.14;63.36;;
72415;Laerm;60995;52.154;4.498;2023-02-01T09:37:16;52.01;46.02;60.60;;
72415;Laerm;60995;52.154;4.498;2023-02-01T09:39:32;55.70;47.31;67.06;;
72415;Laerm;60995;52.154;4.498;2023-02-01T09:44:30;52.52;45.68;63.76;;
72415;Laerm;60995;52.154;4.498;2023-02-01T09:46:54;51.56;44.78;62.17;;
72415;Laerm;60995;52.154;4.498;2023-02-01T09:49:18;53.61;48.28;64.06;;
72415;Laerm;60995;52.154;4.498;2023-02-01T09:51:38;51.39;44.68;64.82;;
72415;Laerm;60995;52.154;4.498;2023-02-01T09:54:04;52.52;45.91;70.69;;
72415;Laerm;60995;52.154;4.498;2023-02-01T09:56:46;52.80;45.37;67.00;;
72415;Laerm;60995;52.154;4.498;2023-02-01T09:59:23;58.42;45.85;84.26;;
72415;Laerm;60995;52.154;4.498;2023-02-01T10:01:43;53.14;45.97;60.32;;
72415;Laerm;60995;52.154;4.498;2023-02-01T10:04:05;52.55;44.57;70.51;;
72415;Laerm;60995;52.154;4.498;2023-02-01T10:09:20;50.62;43.98;63.21;;
72415;Laerm;60995;52.154;4.498;2023-02-01T10:11:44;50.78;44.35;61.37;;
72415;Laerm;60995;52.154;4.498;2023-02-01T10:22:51;53.55;47.06;75.77;;
72415;Laerm;60995;52.154;4.498;2023-02-01T10:27:38;52.74;45.94;70.55;;
72415;Laerm;60995;52.154;4.498;2023-02-01T10:30:04;54.67;45.70;80.94;;
72415;Laerm;60995;52.154;4.498;2023-02-01T10:32:29;53.90;45.08;70.24;;
72415;Laerm;60995;52.154;4.498;2023-02-01T10:34:52;54.50;44.36;73.66;;
72415;Laerm;60995;52.154;4.498;2023-02-01T10:37:37;52.14;45.46;70.84;;
72415;Laerm;60995;52.154;4.498;2023-02-01T10:40:00;54.07;45.21;74.56;;
72415;Laerm;60995;52.154;4.498;2023-02-01T10:42:19;51.64;45.86;64.62;;
72415;Laerm;60995;52.154;4.498;2023-02-01T10:44:42;51.88;45.52;75.14;;
72415;Laerm;60995;52.154;4.498;2023-02-01T10:46:59;53.02;45.89;64.55;;
72415;Laerm;60995;52.154;4.498;2023-02-01T10:49:19;52.50;44.57;69.58;;
72415;Laerm;60995;52.154;4.498;2023-02-01T10:51:44;53.76;45.39;63.45;;
72415;Laerm;60995;52.154;4.498;2023-02-01T10:54:05;53.15;45.22;67.52;;
72415;Laerm;60995;52.154;4.498;2023-02-01T10:56:28;52.49;44.84;62.04;;
72415;Laerm;60995;52.154;4.498;2023-02-01T10:58:46;52.92;44.52;71.38;;
72415;Laerm;60995;52.154;4.498;2023-02-01T11:01:06;52.76;44.63;65.50;;
72415;Laerm;60995;52.154;4.498;2023-02-01T11:05:48;52.82;46.37;70.57;;
72415;Laerm;60995;52.154;4.498;2023-02-01T11:08:05;53.75;47.39;64.33;;
72415;Laerm;60995;52.154;4.498;2023-02-01T11:10:36;52.86;45.24;69.18;;
72415;Laerm;60995;52.154;4.498;2023-02-01T11:12:53;52.80;45.60;71.92;;
72415;Laerm;60995;52.154;4.498;2023-02-01T11:15:19;54.23;47.59;72.80;;
72415;Laerm;60995;52.154;4.498;2023-02-01T11:17:42;52.52;45.98;64.90;;
72415;Laerm;60995;52.154;4.498;2023-02-01T11:20:02;52.61;46.45;70.66;;
72415;Laerm;60995;52.154;4.498;2023-02-01T11:22:18;52.00;45.69;65.68;;
72415;Laerm;60995;52.154;4.498;2023-02-01T11:24:36;52.51;45.96;59.14;;
72415;Laerm;60995;52.154;4.498;2023-02-01T11:26:57;53.95;47.17;63.29;;
72415;Laerm;60995;52.154;4.498;2023-02-01T11:29:17;55.06;46.77;73.23;;
72415;Laerm;60995;52.154;4.498;2023-02-01T11:31:38;55.05;46.89;78.96;;
72415;Laerm;60995;52.154;4.498;2023-02-01T11:34:00;52.67;46.80;66.56;;
72415;Laerm;60995;52.154;4.498;2023-02-01T11:36:26;54.57;48.48;66.90;;
72415;Laerm;60995;52.154;4.498;2023-02-01T11:38:52;51.50;46.31;60.93;;
72415;Laerm;60995;52.154;4.498;2023-02-01T11:41:14;50.88;43.83;67.07;;
72415;Laerm;60995;52.154;4.498;2023-02-01T11:43:30;52.85;46.20;75.16;;
72415;Laerm;60995;52.154;4.498;2023-02-01T11:45:54;53.75;48.06;70.08;;
72415;Laerm;60995;52.154;4.498;2023-02-01T11:48:15;52.36;46.67;61.16;;
72415;Laerm;60995;52.154;4.498;2023-02-01T11:50:52;54.26;45.02;79.00;;
72415;Laerm;60995;52.154;4.498;2023-02-01T12:18:50;52.94;46.44;66.68;;
72415;Laerm;60995;52.154;4.498;2023-02-01T12:29:52;50.10;45.09;62.35;;
72415;Laerm;60995;52.154;4.498;2023-02-01T12:38:19;51.08;44.40;60.51;;
72415;Laerm;60995;52.154;4.498;2023-02-01T12:43:17;51.33;45.48;69.26;;
72415;Laerm;60995;52.154;4.498;2023-02-01T12:45:51;52.76;44.41;75.93;;
72415;Laerm;60995;52.154;4.498;2023-02-01T12:48:41;54.60;44.60;70.07;;
72415;Laerm;60995;52.154;4.498;2023-02-01T12:51:04;52.27;46.79;61.42;;
72415;Laerm;60995;52.154;4.498;2023-02-01T12:56:05;51.15;44.81;61.86;;
72415;Laerm;60995;52.154;4.498;2023-02-01T12:59:09;51.31;44.81;71.80;;
72415;Laerm;60995;52.154;4.498;2023-02-01T13:01:07;51.45;45.37;61.19;;
72415;Laerm;60995;52.154;4.498;2023-02-01T13:03:39;52.63;44.53;63.78;;
72415;Laerm;60995;52.154;4.498;2023-02-01T13:06:10;52.28;45.75;71.20;;
72415;Laerm;60995;52.154;4.498;2023-02-01T13:08:44;51.18;45.03;61.82;;
72415;Laerm;60995;52.154;4.498;2023-02-01T13:11:12;52.13;45.55;80.03;;
72415;Laerm;60995;52.154;4.498;2023-02-01T13:18:49;54.58;45.99;69.23;;
72415;Laerm;60995;52.154;4.498;2023-02-01T13:21:10;50.98;44.84;62.68;;
72415;Laerm;60995;52.154;4.498;2023-02-01T13:23:35;51.89;45.86;63.10;;
72415;Laerm;60995;52.154;4.498;2023-02-01T13:25:53;51.51;44.80;61.93;;
72415;Laerm;60995;52.154;4.498;2023-02-01T13:28:26;52.12;46.09;63.12;;
72415;Laerm;60995;52.154;4.498;2023-02-01T13:33:37;52.84;44.78;74.57;;
72415;Laerm;60995;52.154;4.498;2023-02-01T13:36:16;50.23;44.89;60.81;;
72415;Laerm;60995;52.154;4.498;2023-02-01T13:43:39;50.95;44.59;63.82;;
72415;Laerm;60995;52.154;4.498;2023-02-01T13:46:05;52.08;43.90;62.35;;
72415;Laerm;60995;52.154;4.498;2023-02-01T13:48:28;52.71;45.60;63.99;;
72415;Laerm;60995;52.154;4.498;2023-02-01T13:50:50;51.39;45.34;70.95;;
72415;Laerm;60995;52.154;4.498;2023-02-01T13:56:08;52.48;45.72;67.81;;
72415;Laerm;60995;52.154;4.498;2023-02-01T13:58:43;52.51;45.94;80.91;;
72415;Laerm;60995;52.154;4.498;2023-02-01T14:03:44;50.87;44.37;60.93;;
72415;Laerm;60995;52.154;4.498;2023-02-01T14:06:02;50.61;43.62;74.44;;
72415;Laerm;60995;52.154;4.498;2023-02-01T14:08:40;52.67;42.80;64.97;;
72415;Laerm;60995;52.154;4.498;2023-02-01T14:10:58;49.93;44.48;57.96;;
72415;Laerm;60995;52.154;4.498;2023-02-01T14:13:34;50.73;44.27;65.18;;
72415;Laerm;60995;52.154;4.498;2023-02-01T14:21:18;52.36;45.71;77.59;;
72415;Laerm;60995;52.154;4.498;2023-02-01T14:23:40;52.34;44.48;68.69;;
72415;Laerm;60995;52.154;4.498;2023-02-01T14:26:02;50.17;43.48;57.91;;
72415;Laerm;60995;52.154;4.498;2023-02-01T14:28:28;51.69;44.91;68.79;;
72415;Laerm;60995;52.154;4.498;2023-02-01T14:30:47;53.61;44.10;67.63;;
72415;Laerm;60995;52.154;4.498;2023-02-01T14:33:23;51.76;44.43;67.62;;
72415;Laerm;60995;52.154;4.498;2023-02-01T14:35:40;51.16;44.72;69.53;;
72415;Laerm;60995;52.154;4.498;2023-02-01T14:38:00;49.19;43.05;56.61;;
72415;Laerm;60995;52.154;4.498;2023-02-01T14:40:26;50.45;43.57;59.61;;
72415;Laerm;60995;52.154;4.498;2023-02-01T14:42:48;49.93;43.38;60.77;;
72415;Laerm;60995;52.154;4.498;2023-02-01T14:47:38;50.03;43.53;59.81;;
72415;Laerm;60995;52.154;4.498;2023-02-01T14:50:10;49.85;43.50;61.33;;
72415;Laerm;60995;52.154;4.498;2023-02-01T14:52:32;50.44;43.29;61.11;;